sensor_id;sensor_type;location;lat;lon;timestamp;P1;durP1;ratioP1;P2;durP2;ratioP2
22080;SDS011;11207;59.512;18.050;2022-09-09T00:00:19;2.60;;;2.40;;
22080;SDS011;11207;59.512;18.050;2022-09-09T00:03:02;2.47;;;2.30;;
22080;SDS011;11207;59.512;18.050;2022-09-09T00:08:17;2.70;;;2.50;;
22080;SDS011;11207;59.512;18.050;2022-09-09T00:10:45;2.60;;;2.40;;
22080;SDS011;11207;59.512;18.050;2022-09-09T00:15:55;2.10;;;2.00;;
22080;SDS011;11207;59.512;18.050;2022-09-09T00:21:35;2.30;;;2.20;;
22080;SDS011;11207;59.512;18.050;2022-09-09T00:24:18;2.20;;;2.10;;
22080;SDS011;11207;59.512;18.050;2022-09-09T00:27:17;2.63;;;2.43;;
22080;SDS011;11207;59.512;18.050;2022-09-09T00:29:52;2.60;;;2.40;;
22080;SDS011;11207;59.512;18.050;2022-09-09T00:32:21;2.40;;;2.30;;
22080;SDS011;11207;59.512;18.050;2022-09-09T00:34:55;2.20;;;2.10;;
22080;SDS011;11207;59.512;18.050;2022-09-09T00:37:30;2.50;;;2.30;;
22080;SDS011;11207;59.512;18.050;2022-09-09T00:39:58;2.80;;;2.60;;
22080;SDS011;11207;59.512;18.050;2022-09-09T00:42:33;3.53;;;2.57;;
22080;SDS011;11207;59.512;18.050;2022-09-09T00:47:56;3.00;;;2.37;;
22080;SDS011;11207;59.512;18.050;2022-09-09T00:58:15;2.20;;;2.10;;
22080;SDS011;11207;59.512;18.050;2022-09-09T01:00:42;2.43;;;2.23;;
22080;SDS011;11207;59.512;18.050;2022-09-09T01:03:29;2.53;;;2.43;;
22080;SDS011;11207;59.512;18.050;2022-09-09T01:17:04;2.40;;;2.30;;
22080;SDS011;11207;59.512;18.050;2022-09-09T01:22:30;2.77;;;2.50;;
22080;SDS011;11207;59.512;18.050;2022-09-09T01:27:44;2.30;;;2.20;;
22080;SDS011;11207;59.512;18.050;2022-09-09T01:30:13;2.43;;;2.30;;
22080;SDS011;11207;59.512;18.050;2022-09-09T01:35:09;2.47;;;2.30;;
22080;SDS011;11207;59.512;18.050;2022-09-09T01:37:44;2.40;;;2.30;;
22080;SDS011;11207;59.512;18.050;2022-09-09T01:40:10;2.70;;;2.50;;
22080;SDS011;11207;59.512;18.050;2022-09-09T01:42:38;2.30;;;2.10;;
22080;SDS011;11207;59.512;18.050;2022-09-09T01:45:04;2.50;;;2.40;;
22080;SDS011;11207;59.512;18.050;2022-09-09T01:47:30;2.60;;;2.40;;
22080;SDS011;11207;59.512;18.050;2022-09-09T01:49:55;2.50;;;2.30;;
22080;SDS011;11207;59.512;18.050;2022-09-09T01:52:21;2.30;;;2.20;;
22080;SDS011;11207;59.512;18.050;2022-09-09T01:54:47;2.77;;;2.33;;
22080;SDS011;11207;59.512;18.050;2022-09-09T01:57:33;2.23;;;2.13;;
22080;SDS011;11207;59.512;18.050;2022-09-09T02:00:13;2.13;;;2.03;;
22080;SDS011;11207;59.512;18.050;2022-09-09T02:08:13;2.27;;;2.10;;
22080;SDS011;11207;59.512;18.050;2022-09-09T02:10:50;2.30;;;2.20;;
22080;SDS011;11207;59.512;18.050;2022-09-09T02:13:21;2.50;;;2.30;;
22080;SDS011;11207;59.512;18.050;2022-09-09T02:18:45;3.10;;;2.30;;
22080;SDS011;11207;59.512;18.050;2022-09-09T02:21:13;2.20;;;2.00;;
22080;SDS011;11207;59.512;18.050;2022-09-09T02:23:42;2.30;;;2.10;;
22080;SDS011;11207;59.512;18.050;2022-09-09T02:26:11;2.27;;;2.07;;
22080;SDS011;11207;59.512;18.050;2022-09-09T02:28:44;2.13;;;2.03;;
22080;SDS011;11207;59.512;18.050;2022-09-09T02:31:12;2.20;;;2.10;;
22080;SDS011;11207;59.512;18.050;2022-09-09T02:33:43;2.13;;;2.03;;
22080;SDS011;11207;59.512;18.050;2022-09-09T02:36:12;2.10;;;2.00;;
22080;SDS011;11207;59.512;18.050;2022-09-09T02:38:42;2.10;;;2.00;;
22080;SDS011;11207;59.512;18.050;2022-09-09T02:41:15;2.40;;;2.20;;
22080;SDS011;11207;59.512;18.050;2022-09-09T02:43:43;2.47;;;2.27;;
22080;SDS011;11207;59.512;18.050;2022-09-09T02:49:08;2.63;;;2.20;;
22080;SDS011;11207;59.512;18.050;2022-09-09T02:51:42;2.00;;;1.90;;
22080;SDS011;11207;59.512;18.050;2022-09-09T02:56:56;2.60;;;2.00;;
22080;SDS011;11207;59.512;18.050;2022-09-09T02:59:27;2.00;;;1.90;;
22080;SDS011;11207;59.512;18.050;2022-09-09T03:01:52;4.30;;;2.20;;
22080;SDS011;11207;59.512;18.050;2022-09-09T03:04:18;2.10;;;2.00;;
22080;SDS011;11207;59.512;18.050;2022-09-09T03:06:44;2.37;;;2.13;;
22080;SDS011;11207;59.512;18.050;2022-09-09T03:09:09;2.03;;;1.90;;
22080;SDS011;11207;59.512;18.050;2022-09-09T03:11:35;2.20;;;2.00;;
22080;SDS011;11207;59.512;18.050;2022-09-09T03:14:01;2.10;;;1.90;;
22080;SDS011;11207;59.512;18.050;2022-09-09T03:16:27;1.90;;;1.80;;
22080;SDS011;11207;59.512;18.050;2022-09-09T03:18:53;2.10;;;2.00;;
22080;SDS011;11207;59.512;18.050;2022-09-09T03:21:19;2.27;;;2.07;;
22080;SDS011;11207;59.512;18.050;2022-09-09T03:23:45;2.00;;;1.90;;
22080;SDS011;11207;59.512;18.050;2022-09-09T03:26:11;2.03;;;1.93;;
22080;SDS011;11207;59.512;18.050;2022-09-09T03:28:37;2.23;;;2.10;;
22080;SDS011;11207;59.512;18.050;2022-09-09T03:31:03;2.20;;;2.10;;
22080;SDS011;11207;59.512;18.050;2022-09-09T03:33:30;2.10;;;2.00;;
22080;SDS011;11207;59.512;18.050;2022-09-09T03:35:56;2.20;;;2.00;;
22080;SDS011;11207;59.512;18.050;2022-09-09T03:38:23;1.90;;;1.80;;
22080;SDS011;11207;59.512;18.050;2022-09-09T03:40:50;2.37;;;2.17;;
22080;SDS011;11207;59.512;18.050;2022-09-09T03:43:20;1.90;;;1.80;;
22080;SDS011;11207;59.512;18.050;2022-09-09T03:45:46;2.07;;;1.97;;
22080;SDS011;11207;59.512;18.050;2022-09-09T03:48:13;2.20;;;1.90;;
22080;SDS011;11207;59.512;18.050;2022-09-09T03:50:43;1.93;;;1.83;;
22080;SDS011;11207;59.512;18.050;2022-09-09T03:53:13;1.97;;;1.87;;
22080;SDS011;11207;59.512;18.050;2022-09-09T03:55:43;2.00;;;1.80;;
22080;SDS011;11207;59.512;18.050;2022-09-09T03:58:13;2.10;;;2.00;;
22080;SDS011;11207;59.512;18.050;2022-09-09T04:00:40;2.10;;;2.00;;
22080;SDS011;11207;59.512;18.050;2022-09-09T04:03:09;2.20;;;2.10;;
22080;SDS011;11207;59.512;18.050;2022-09-09T04:05:36;2.00;;;1.90;;
22080;SDS011;11207;59.512;18.050;2022-09-09T04:08:07;2.47;;;1.90;;
22080;SDS011;11207;59.512;18.050;2022-09-09T04:10:33;2.20;;;2.10;;
22080;SDS011;11207;59.512;18.050;2022-09-09T04:13:02;2.20;;;2.10;;
22080;SDS011;11207;59.512;18.050;2022-09-09T04:15:28;2.17;;;2.07;;
22080;SDS011;11207;59.512;18.050;2022-09-09T04:17:55;2.10;;;1.90;;
22080;SDS011;11207;59.512;18.050;2022-09-09T04:20:20;2.00;;;1.90;;
22080;SDS011;11207;59.512;18.050;2022-09-09T04:22:47;1.80;;;1.70;;
22080;SDS011;11207;59.512;18.050;2022-09-09T04:25:13;4.93;;;2.10;;
22080;SDS011;11207;59.512;18.050;2022-09-09T04:27:38;3.17;;;2.30;;
22080;SDS011;11207;59.512;18.050;2022-09-09T04:30:05;2.40;;;2.20;;
22080;SDS011;11207;59.512;18.050;2022-09-09T04:32:33;2.50;;;1.90;;
22080;SDS011;11207;59.512;18.050;2022-09-09T04:34:58;2.53;;;1.90;;
22080;SDS011;11207;59.512;18.050;2022-09-09T04:37:24;2.00;;;1.90;;
22080;SDS011;11207;59.512;18.050;2022-09-09T04:39:50;5.70;;;2.93;;
22080;SDS011;11207;59.512;18.050;2022-09-09T04:42:15;2.37;;;2.10;;
22080;SDS011;11207;59.512;18.050;2022-09-09T04:44:44;5.30;;;2.30;;
22080;SDS011;11207;59.512;18.050;2022-09-09T04:47:10;2.47;;;2.27;;
22080;SDS011;11207;59.512;18.050;2022-09-09T04:49:36;3.20;;;2.00;;
22080;SDS011;11207;59.512;18.050;2022-09-09T04:52:02;4.70;;;2.60;;
22080;SDS011;11207;59.512;18.050;2022-09-09T04:54:28;3.13;;;2.50;;
22080;SDS011;11207;59.512;18.050;2022-09-09T04:56:54;4.20;;;2.37;;
22080;SDS011;11207;59.512;18.050;2022-09-09T04:59:20;8.83;;;2.30;;
22080;SDS011;11207;59.512;18.050;2022-09-09T05:01:46;3.10;;;2.30;;
22080;SDS011;11207;59.512;18.050;2022-09-09T05:04:15;2.30;;;2.10;;
22080;SDS011;11207;59.512;18.050;2022-09-09T05:06:41;2.70;;;2.47;;
22080;SDS011;11207;59.512;18.050;2022-09-09T05:09:07;3.00;;;2.10;;
22080;SDS011;11207;59.512;18.050;2022-09-09T05:11:33;2.40;;;2.20;;
22080;SDS011;11207;59.512;18.050;2022-09-09T05:14:03;6.33;;;2.30;;
22080;SDS011;11207;59.512;18.050;2022-09-09T05:16:29;1.97;;;1.87;;
22080;SDS011;11207;59.512;18.050;2022-09-09T05:18:55;3.33;;;2.20;;
22080;SDS011;11207;59.512;18.050;2022-09-09T05:21:22;2.23;;;2.07;;
22080;SDS011;11207;59.512;18.050;2022-09-09T05:23:50;2.20;;;2.00;;
22080;SDS011;11207;59.512;18.050;2022-09-09T05:26:17;2.30;;;2.10;;
22080;SDS011;11207;59.512;18.050;2022-09-09T05:28:44;2.73;;;2.10;;
22080;SDS011;11207;59.512;18.050;2022-09-09T05:31:11;2.40;;;1.90;;
22080;SDS011;11207;59.512;18.050;2022-09-09T05:33:38;2.83;;;1.90;;
22080;SDS011;11207;59.512;18.050;2022-09-09T05:36:15;2.10;;;2.00;;
22080;SDS011;11207;59.512;18.050;2022-09-09T05:38:43;2.00;;;1.90;;
22080;SDS011;11207;59.512;18.050;2022-09-09T05:41:10;4.30;;;2.03;;
22080;SDS011;11207;59.512;18.050;2022-09-09T05:43:37;2.73;;;2.00;;
22080;SDS011;11207;59.512;18.050;2022-09-09T05:46:07;2.43;;;1.90;;
22080;SDS011;11207;59.512;18.050;2022-09-09T05:48:35;2.00;;;1.90;;
22080;SDS011;11207;59.512;18.050;2022-09-09T05:51:02;2.07;;;1.90;;
22080;SDS011;11207;59.512;18.050;2022-09-09T05:53:29;2.30;;;2.10;;
22080;SDS011;11207;59.512;18.050;2022-09-09T05:56:03;3.00;;;1.83;;
22080;SDS011;11207;59.512;18.050;2022-09-09T05:58:31;2.33;;;1.87;;
22080;SDS011;11207;59.512;18.050;2022-09-09T06:01:04;2.43;;;2.23;;
22080;SDS011;11207;59.512;18.050;2022-09-09T06:03:42;5.20;;;1.70;;
22080;SDS011;11207;59.512;18.050;2022-09-09T06:06:10;3.07;;;1.90;;
22080;SDS011;11207;59.512;18.050;2022-09-09T06:08:38;2.10;;;1.90;;
22080;SDS011;11207;59.512;18.050;2022-09-09T06:11:10;3.20;;;2.33;;
22080;SDS011;11207;59.512;18.050;2022-09-09T06:13:37;2.10;;;2.00;;
22080;SDS011;11207;59.512;18.050;2022-09-09T06:16:04;2.10;;;1.90;;
22080;SDS011;11207;59.512;18.050;2022-09-09T06:18:37;2.10;;;1.90;;
22080;SDS011;11207;59.512;18.050;2022-09-09T06:21:04;2.33;;;2.00;;
22080;SDS011;11207;59.512;18.050;2022-09-09T06:23:32;5.10;;;1.90;;
22080;SDS011;11207;59.512;18.050;2022-09-09T06:26:01;2.13;;;1.90;;
22080;SDS011;11207;59.512;18.050;2022-09-09T06:28:31;2.10;;;1.90;;
22080;SDS011;11207;59.512;18.050;2022-09-09T06:31:00;1.90;;;1.80;;
22080;SDS011;11207;59.512;18.050;2022-09-09T06:33:30;4.07;;;2.00;;
22080;SDS011;11207;59.512;18.050;2022-09-09T06:35:57;1.50;;;1.40;;
22080;SDS011;11207;59.512;18.050;2022-09-09T06:38:23;1.40;;;1.30;;
22080;SDS011;11207;59.512;18.050;2022-09-09T06:40:54;2.77;;;1.50;;
22080;SDS011;11207;59.512;18.050;2022-09-09T06:43:21;3.67;;;1.70;;
22080;SDS011;11207;59.512;18.050;2022-09-09T06:45:55;1.70;;;1.60;;
22080;SDS011;11207;59.512;18.050;2022-09-09T06:48:29;1.40;;;1.37;;
22080;SDS011;11207;59.512;18.050;2022-09-09T06:51:02;5.20;;;1.70;;
22080;SDS011;11207;59.512;18.050;2022-09-09T06:53:36;2.00;;;1.60;;
22080;SDS011;11207;59.512;18.050;2022-09-09T06:58:34;3.10;;;1.30;;
22080;SDS011;11207;59.512;18.050;2022-09-09T07:01:10;4.07;;;1.50;;
22080;SDS011;11207;59.512;18.050;2022-09-09T07:03:40;1.37;;;1.20;;
22080;SDS011;11207;59.512;18.050;2022-09-09T07:06:13;3.30;;;1.40;;
22080;SDS011;11207;59.512;18.050;2022-09-09T07:08:41;4.70;;;1.60;;
22080;SDS011;11207;59.512;18.050;2022-09-09T07:11:08;1.40;;;1.30;;
22080;SDS011;11207;59.512;18.050;2022-09-09T07:13:34;3.13;;;1.50;;
22080;SDS011;11207;59.512;18.050;2022-09-09T07:16:07;1.30;;;1.30;;
22080;SDS011;11207;59.512;18.050;2022-09-09T07:18:34;1.63;;;1.50;;
22080;SDS011;11207;59.512;18.050;2022-09-09T07:21:01;2.10;;;1.33;;
22080;SDS011;11207;59.512;18.050;2022-09-09T07:23:29;1.60;;;1.50;;
22080;SDS011;11207;59.512;18.050;2022-09-09T07:25:55;1.83;;;1.30;;
22080;SDS011;11207;59.512;18.050;2022-09-09T07:28:23;2.53;;;1.30;;
22080;SDS011;11207;59.512;18.050;2022-09-09T07:30:55;1.50;;;1.40;;
22080;SDS011;11207;59.512;18.050;2022-09-09T07:33:23;1.70;;;1.60;;
22080;SDS011;11207;59.512;18.050;2022-09-09T07:35:49;2.40;;;1.57;;
22080;SDS011;11207;59.512;18.050;2022-09-09T07:38:15;1.30;;;1.23;;
22080;SDS011;11207;59.512;18.050;2022-09-09T07:40:41;1.77;;;1.37;;
22080;SDS011;11207;59.512;18.050;2022-09-09T07:43:08;1.50;;;1.40;;
22080;SDS011;11207;59.512;18.050;2022-09-09T07:45:34;2.33;;;1.20;;
22080;SDS011;11207;59.512;18.050;2022-09-09T07:48:01;3.20;;;1.50;;
22080;SDS011;11207;59.512;18.050;2022-09-09T07:50:27;1.73;;;1.50;;
22080;SDS011;11207;59.512;18.050;2022-09-09T07:53:00;5.83;;;1.43;;
22080;SDS011;11207;59.512;18.050;2022-09-09T07:55:41;5.00;;;1.40;;
22080;SDS011;11207;59.512;18.050;2022-09-09T07:58:07;1.40;;;1.20;;
22080;SDS011;11207;59.512;18.050;2022-09-09T08:00:33;1.53;;;1.40;;
22080;SDS011;11207;59.512;18.050;2022-09-09T08:02:58;3.17;;;1.50;;
22080;SDS011;11207;59.512;18.050;2022-09-09T08:05:27;2.40;;;1.30;;
22080;SDS011;11207;59.512;18.050;2022-09-09T08:07:53;2.37;;;1.30;;
22080;SDS011;11207;59.512;18.050;2022-09-09T08:10:18;1.97;;;1.20;;
22080;SDS011;11207;59.512;18.050;2022-09-09T08:12:44;1.63;;;1.33;;
22080;SDS011;11207;59.512;18.050;2022-09-09T08:15:10;1.83;;;1.30;;
22080;SDS011;11207;59.512;18.050;2022-09-09T08:17:37;1.93;;;1.33;;
22080;SDS011;11207;59.512;18.050;2022-09-09T08:20:03;2.40;;;1.40;;
22080;SDS011;11207;59.512;18.050;2022-09-09T08:22:31;1.27;;;1.20;;
22080;SDS011;11207;59.512;18.050;2022-09-09T08:24:57;2.70;;;1.43;;
22080;SDS011;11207;59.512;18.050;2022-09-09T08:27:23;1.13;;;1.13;;
22080;SDS011;11207;59.512;18.050;2022-09-09T08:29:50;1.20;;;1.10;;
22080;SDS011;11207;59.512;18.050;2022-09-09T08:32:16;2.03;;;1.80;;
22080;SDS011;11207;59.512;18.050;2022-09-09T08:34:43;2.10;;;1.20;;
22080;SDS011;11207;59.512;18.050;2022-09-09T08:37:09;2.40;;;1.30;;
22080;SDS011;11207;59.512;18.050;2022-09-09T08:39:35;3.73;;;1.33;;
22080;SDS011;11207;59.512;18.050;2022-09-09T08:42:08;1.30;;;1.20;;
22080;SDS011;11207;59.512;18.050;2022-09-09T08:47:23;1.80;;;1.20;;
22080;SDS011;11207;59.512;18.050;2022-09-09T08:57:47;1.50;;;1.40;;
22080;SDS011;11207;59.512;18.050;2022-09-09T09:00:17;1.70;;;1.30;;
22080;SDS011;11207;59.512;18.050;2022-09-09T09:05:37;1.23;;;1.13;;
22080;SDS011;11207;59.512;18.050;2022-09-09T09:11:00;1.57;;;1.30;;
22080;SDS011;11207;59.512;18.050;2022-09-09T09:13:30;1.23;;;1.20;;
22080;SDS011;11207;59.512;18.050;2022-09-09T09:16:00;1.87;;;1.53;;
22080;SDS011;11207;59.512;18.050;2022-09-09T09:18:53;2.07;;;1.27;;
22080;SDS011;11207;59.512;18.050;2022-09-09T09:24:13;1.40;;;1.30;;
22080;SDS011;11207;59.512;18.050;2022-09-09T09:26:46;3.47;;;1.30;;
22080;SDS011;11207;59.512;18.050;2022-09-09T09:29:26;1.17;;;1.17;;
22080;SDS011;11207;59.512;18.050;2022-09-09T09:31:52;5.80;;;1.27;;
22080;SDS011;11207;59.512;18.050;2022-09-09T09:34:20;1.27;;;1.20;;
22080;SDS011;11207;59.512;18.050;2022-09-09T09:36:56;1.53;;;1.20;;
22080;SDS011;11207;59.512;18.050;2022-09-09T09:39:30;2.13;;;1.57;;
22080;SDS011;11207;59.512;18.050;2022-09-09T09:42:12;2.97;;;1.27;;
22080;SDS011;11207;59.512;18.050;2022-09-09T09:44:39;2.90;;;1.40;;
22080;SDS011;11207;59.512;18.050;2022-09-09T09:49:39;1.70;;;1.27;;
22080;SDS011;11207;59.512;18.050;2022-09-09T09:52:24;2.07;;;1.30;;
22080;SDS011;11207;59.512;18.050;2022-09-09T09:54:51;1.30;;;1.20;;
22080;SDS011;11207;59.512;18.050;2022-09-09T09:57:18;2.07;;;1.27;;
22080;SDS011;11207;59.512;18.050;2022-09-09T10:02:46;7.17;;;1.40;;
22080;SDS011;11207;59.512;18.050;2022-09-09T10:05:14;1.33;;;1.23;;
22080;SDS011;11207;59.512;18.050;2022-09-09T10:07:40;1.27;;;1.17;;
22080;SDS011;11207;59.512;18.050;2022-09-09T10:10:08;5.13;;;1.30;;
22080;SDS011;11207;59.512;18.050;2022-09-09T10:12:47;1.93;;;1.27;;
22080;SDS011;11207;59.512;18.050;2022-09-09T10:20:58;3.90;;;1.40;;
22080;SDS011;11207;59.512;18.050;2022-09-09T10:36:48;1.40;;;1.30;;
22080;SDS011;11207;59.512;18.050;2022-09-09T10:39:35;2.10;;;1.40;;
22080;SDS011;11207;59.512;18.050;2022-09-09T10:48:04;2.33;;;1.20;;
22080;SDS011;11207;59.512;18.050;2022-09-09T10:55:29;3.37;;;1.27;;
22080;SDS011;11207;59.512;18.050;2022-09-09T10:58:02;2.03;;;1.30;;
22080;SDS011;11207;59.512;18.050;2022-09-09T11:03:28;1.70;;;1.40;;
22080;SDS011;11207;59.512;18.050;2022-09-09T11:06:10;3.23;;;1.20;;
22080;SDS011;11207;59.512;18.050;2022-09-09T11:08:39;1.30;;;1.20;;
22080;SDS011;11207;59.512;18.050;2022-09-09T11:11:11;3.10;;;1.40;;
22080;SDS011;11207;59.512;18.050;2022-09-09T11:19:43;6.83;;;1.30;;
22080;SDS011;11207;59.512;18.050;2022-09-09T11:25:17;3.70;;;1.20;;
22080;SDS011;11207;59.512;18.050;2022-09-09T11:33:42;1.13;;;1.10;;
22080;SDS011;11207;59.512;18.050;2022-09-09T11:42:20;1.13;;;1.10;;
22080;SDS011;11207;59.512;18.050;2022-09-09T11:44:48;1.13;;;1.10;;
22080;SDS011;11207;59.512;18.050;2022-09-09T11:47:33;1.67;;;1.23;;
22080;SDS011;11207;59.512;18.050;2022-09-09T11:52:38;1.97;;;1.40;;
22080;SDS011;11207;59.512;18.050;2022-09-09T12:00:46;1.53;;;0.90;;
22080;SDS011;11207;59.512;18.050;2022-09-09T12:06:13;2.43;;;1.13;;
22080;SDS011;11207;59.512;18.050;2022-09-09T12:08:47;3.67;;;1.30;;
22080;SDS011;11207;59.512;18.050;2022-09-09T12:11:27;1.43;;;1.00;;
22080;SDS011;11207;59.512;18.050;2022-09-09T12:13:56;2.47;;;1.13;;
22080;SDS011;11207;59.512;18.050;2022-09-09T12:16:28;1.10;;;1.00;;
22080;SDS011;11207;59.512;18.050;2022-09-09T12:26:40;1.53;;;1.40;;
22080;SDS011;11207;59.512;18.050;2022-09-09T12:29:18;1.10;;;1.00;;
22080;SDS011;11207;59.512;18.050;2022-09-09T12:32:24;3.03;;;1.17;;
22080;SDS011;11207;59.512;18.050;2022-09-09T12:37:36;3.73;;;1.10;;
22080;SDS011;11207;59.512;18.050;2022-09-09T12:40:14;1.73;;;1.30;;
22080;SDS011;11207;59.512;18.050;2022-09-09T12:42:51;1.40;;;1.13;;
22080;SDS011;11207;59.512;18.050;2022-09-09T12:45:18;1.33;;;1.23;;
22080;SDS011;11207;59.512;18.050;2022-09-09T12:50:22;2.37;;;1.47;;
22080;SDS011;11207;59.512;18.050;2022-09-09T12:52:51;2.43;;;1.20;;
22080;SDS011;11207;59.512;18.050;2022-09-09T12:55:20;1.87;;;1.27;;
22080;SDS011;11207;59.512;18.050;2022-09-09T12:57:50;1.47;;;1.17;;
22080;SDS011;11207;59.512;18.050;2022-09-09T13:02:55;1.77;;;1.30;;
22080;SDS011;11207;59.512;18.050;2022-09-09T13:05:23;1.73;;;1.30;;
22080;SDS011;11207;59.512;18.050;2022-09-09T13:07:51;1.47;;;1.30;;
22080;SDS011;11207;59.512;18.050;2022-09-09T13:10:27;1.77;;;1.20;;
22080;SDS011;11207;59.512;18.050;2022-09-09T13:12:56;1.43;;;1.30;;
22080;SDS011;11207;59.512;18.050;2022-09-09T13:15:23;1.87;;;1.20;;
22080;SDS011;11207;59.512;18.050;2022-09-09T13:17:56;1.90;;;1.40;;
22080;SDS011;11207;59.512;18.050;2022-09-09T13:20:25;1.87;;;1.50;;
22080;SDS011;11207;59.512;18.050;2022-09-09T13:22:53;3.13;;;1.30;;
22080;SDS011;11207;59.512;18.050;2022-09-09T13:25:27;1.20;;;1.13;;
22080;SDS011;11207;59.512;18.050;2022-09-09T13:28:00;5.03;;;1.43;;
22080;SDS011;11207;59.512;18.050;2022-09-09T13:30:29;1.40;;;1.30;;
22080;SDS011;11207;59.512;18.050;2022-09-09T13:33:01;2.00;;;1.37;;
22080;SDS011;11207;59.512;18.050;2022-09-09T13:35:30;1.63;;;1.30;;
22080;SDS011;11207;59.512;18.050;2022-09-09T13:37:56;3.33;;;1.40;;
22080;SDS011;11207;59.512;18.050;2022-09-09T13:40:23;1.57;;;1.40;;
22080;SDS011;11207;59.512;18.050;2022-09-09T13:42:56;1.40;;;1.30;;
22080;SDS011;11207;59.512;18.050;2022-09-09T13:45:24;1.40;;;1.30;;
22080;SDS011;11207;59.512;18.050;2022-09-09T13:47:54;3.60;;;1.53;;
22080;SDS011;11207;59.512;18.050;2022-09-09T13:50:21;3.67;;;1.43;;
22080;SDS011;11207;59.512;18.050;2022-09-09T13:52:53;2.13;;;1.30;;
22080;SDS011;11207;59.512;18.050;2022-09-09T13:55:21;1.50;;;1.40;;
22080;SDS011;11207;59.512;18.050;2022-09-09T14:00:20;2.40;;;1.20;;
22080;SDS011;11207;59.512;18.050;2022-09-09T14:02:47;1.20;;;1.10;;
22080;SDS011;11207;59.512;18.050;2022-09-09T14:05:13;1.40;;;1.30;;
22080;SDS011;11207;59.512;18.050;2022-09-09T14:07:41;2.20;;;1.30;;
22080;SDS011;11207;59.512;18.050;2022-09-09T14:10:08;1.53;;;1.43;;
22080;SDS011;11207;59.512;18.050;2022-09-09T14:12:34;1.40;;;1.30;;
22080;SDS011;11207;59.512;18.050;2022-09-09T14:15:01;1.60;;;1.30;;
22080;SDS011;11207;59.512;18.050;2022-09-09T14:17:31;1.50;;;1.40;;
22080;SDS011;11207;59.512;18.050;2022-09-09T14:19:57;1.33;;;1.20;;
22080;SDS011;11207;59.512;18.050;2022-09-09T14:22:23;6.63;;;1.57;;
22080;SDS011;11207;59.512;18.050;2022-09-09T14:24:50;3.07;;;1.50;;
22080;SDS011;11207;59.512;18.050;2022-09-09T14:27:16;2.17;;;1.53;;
22080;SDS011;11207;59.512;18.050;2022-09-09T14:29:42;1.50;;;1.40;;
22080;SDS011;11207;59.512;18.050;2022-09-09T14:32:09;1.73;;;1.63;;
22080;SDS011;11207;59.512;18.050;2022-09-09T14:34:35;1.50;;;1.40;;
22080;SDS011;11207;59.512;18.050;2022-09-09T14:37:01;2.93;;;1.50;;
22080;SDS011;11207;59.512;18.050;2022-09-09T14:39:26;4.10;;;1.40;;
22080;SDS011;11207;59.512;18.050;2022-09-09T14:41:52;1.50;;;1.40;;
22080;SDS011;11207;59.512;18.050;2022-09-09T14:44:18;2.07;;;1.67;;
22080;SDS011;11207;59.512;18.050;2022-09-09T14:46:43;3.17;;;1.60;;
22080;SDS011;11207;59.512;18.050;2022-09-09T14:49:09;2.87;;;1.57;;
22080;SDS011;11207;59.512;18.050;2022-09-09T14:51:38;1.40;;;1.30;;
22080;SDS011;11207;59.512;18.050;2022-09-09T14:54:04;1.50;;;1.40;;
22080;SDS011;11207;59.512;18.050;2022-09-09T14:56:31;2.30;;;1.43;;
22080;SDS011;11207;59.512;18.050;2022-09-09T14:58:59;2.13;;;1.67;;
22080;SDS011;11207;59.512;18.050;2022-09-09T15:01:28;1.50;;;1.40;;
22080;SDS011;11207;59.512;18.050;2022-09-09T15:03:56;2.47;;;1.40;;
22080;SDS011;11207;59.512;18.050;2022-09-09T15:06:24;2.07;;;1.50;;
22080;SDS011;11207;59.512;18.050;2022-09-09T15:08:52;4.10;;;2.07;;
22080;SDS011;11207;59.512;18.050;2022-09-09T15:11:18;1.63;;;1.40;;
22080;SDS011;11207;59.512;18.050;2022-09-09T15:13:45;1.63;;;1.33;;
22080;SDS011;11207;59.512;18.050;2022-09-09T15:16:16;2.57;;;1.50;;
22080;SDS011;11207;59.512;18.050;2022-09-09T15:18:43;1.57;;;1.47;;
22080;SDS011;11207;59.512;18.050;2022-09-09T15:21:10;4.13;;;1.60;;
22080;SDS011;11207;59.512;18.050;2022-09-09T15:23:37;4.70;;;1.77;;
22080;SDS011;11207;59.512;18.050;2022-09-09T15:26:03;1.53;;;1.43;;
22080;SDS011;11207;59.512;18.050;2022-09-09T15:28:31;2.57;;;1.60;;
22080;SDS011;11207;59.512;18.050;2022-09-09T15:31:09;3.07;;;1.40;;
22080;SDS011;11207;59.512;18.050;2022-09-09T15:33:38;2.00;;;1.40;;
22080;SDS011;11207;59.512;18.050;2022-09-09T15:36:13;3.57;;;1.60;;
22080;SDS011;11207;59.512;18.050;2022-09-09T15:38:47;4.73;;;1.70;;
22080;SDS011;11207;59.512;18.050;2022-09-09T15:41:13;2.87;;;1.47;;
22080;SDS011;11207;59.512;18.050;2022-09-09T15:43:42;4.83;;;1.77;;
22080;SDS011;11207;59.512;18.050;2022-09-09T15:46:22;1.80;;;1.70;;
22080;SDS011;11207;59.512;18.050;2022-09-09T15:48:49;4.33;;;1.50;;
22080;SDS011;11207;59.512;18.050;2022-09-09T15:51:16;2.70;;;1.73;;
22080;SDS011;11207;59.512;18.050;2022-09-09T15:53:41;3.80;;;1.40;;
22080;SDS011;11207;59.512;18.050;2022-09-09T15:56:08;2.97;;;1.60;;
22080;SDS011;11207;59.512;18.050;2022-09-09T15:58:34;2.10;;;1.60;;
22080;SDS011;11207;59.512;18.050;2022-09-09T16:01:07;6.70;;;1.70;;
22080;SDS011;11207;59.512;18.050;2022-09-09T16:03:37;2.40;;;1.60;;
22080;SDS011;11207;59.512;18.050;2022-09-09T16:06:11;2.27;;;1.60;;
22080;SDS011;11207;59.512;18.050;2022-09-09T16:08:39;2.03;;;1.73;;
22080;SDS011;11207;59.512;18.050;2022-09-09T16:11:12;2.40;;;1.63;;
22080;SDS011;11207;59.512;18.050;2022-09-09T16:13:40;3.07;;;1.50;;
22080;SDS011;11207;59.512;18.050;2022-09-09T16:16:08;1.87;;;1.50;;
22080;SDS011;11207;59.512;18.050;2022-09-09T16:18:39;2.20;;;2.00;;
22080;SDS011;11207;59.512;18.050;2022-09-09T16:21:14;1.70;;;1.60;;
22080;SDS011;11207;59.512;18.050;2022-09-09T16:23:44;2.23;;;1.70;;
22080;SDS011;11207;59.512;18.050;2022-09-09T16:26:10;1.60;;;1.50;;
22080;SDS011;11207;59.512;18.050;2022-09-09T16:28:37;1.63;;;1.53;;
22080;SDS011;11207;59.512;18.050;2022-09-09T16:31:08;1.77;;;1.43;;
22080;SDS011;11207;59.512;18.050;2022-09-09T16:33:39;1.70;;;1.60;;
22080;SDS011;11207;59.512;18.050;2022-09-09T16:36:08;3.30;;;1.80;;
22080;SDS011;11207;59.512;18.050;2022-09-09T16:38:37;1.70;;;1.50;;
22080;SDS011;11207;59.512;18.050;2022-09-09T16:41:04;4.20;;;1.80;;
22080;SDS011;11207;59.512;18.050;2022-09-09T16:43:32;2.70;;;1.67;;
22080;SDS011;11207;59.512;18.050;2022-09-09T16:45:58;1.63;;;1.53;;
22080;SDS011;11207;59.512;18.050;2022-09-09T16:48:31;1.53;;;1.40;;
22080;SDS011;11207;59.512;18.050;2022-09-09T16:51:05;3.23;;;1.80;;
22080;SDS011;11207;59.512;18.050;2022-09-09T16:53:32;2.00;;;1.80;;
22080;SDS011;11207;59.512;18.050;2022-09-09T16:56:04;2.50;;;1.80;;
22080;SDS011;11207;59.512;18.050;2022-09-09T16:58:31;2.87;;;1.87;;
22080;SDS011;11207;59.512;18.050;2022-09-09T17:01:00;1.87;;;1.70;;
22080;SDS011;11207;59.512;18.050;2022-09-09T17:03:29;1.70;;;1.60;;
22080;SDS011;11207;59.512;18.050;2022-09-09T17:05:59;2.43;;;1.97;;
22080;SDS011;11207;59.512;18.050;2022-09-09T17:08:28;1.70;;;1.60;;
22080;SDS011;11207;59.512;18.050;2022-09-09T17:10:55;2.30;;;1.93;;
22080;SDS011;11207;59.512;18.050;2022-09-09T17:13:21;3.37;;;1.70;;
22080;SDS011;11207;59.512;18.050;2022-09-09T17:15:47;2.13;;;1.60;;
22080;SDS011;11207;59.512;18.050;2022-09-09T17:18:12;1.90;;;1.80;;
22080;SDS011;11207;59.512;18.050;2022-09-09T17:20:39;2.57;;;1.80;;
22080;SDS011;11207;59.512;18.050;2022-09-09T17:23:06;2.10;;;1.80;;
22080;SDS011;11207;59.512;18.050;2022-09-09T17:25:36;1.90;;;1.70;;
22080;SDS011;11207;59.512;18.050;2022-09-09T17:28:03;2.07;;;1.90;;